createdAt,value
2022-11-30T00:02:12.106Z,101155.03
2022-11-30T00:04:42.322Z,101150.13
2022-11-30T00:07:13.731Z,101156.44
2022-11-30T00:09:44.010Z,101155.31
2022-11-30T00:12:14.223Z,101153.69
2022-11-30T00:14:45.813Z,101160.84
2022-11-30T00:17:16.964Z,101158.41
2022-11-30T00:19:49.451Z,101155.31
2022-11-30T00:22:19.725Z,101157.28
2022-11-30T00:24:50.329Z,101158.91
2022-11-30T00:27:20.928Z,101156.94
2022-11-30T00:29:51.161Z,101166.34
2022-11-30T00:32:21.370Z,101159.72
2022-11-30T00:34:52.332Z,101171.56
2022-11-30T00:37:22.952Z,101173.50
2022-11-30T00:39:53.188Z,101174.63
2022-11-30T00:42:23.371Z,101178.72
2022-11-30T00:44:53.456Z,101184.53
2022-11-30T00:47:23.422Z,101196.09
2022-11-30T00:49:53.364Z,101185.88
2022-11-30T00:52:25.159Z,101194.97
2022-11-30T00:54:55.660Z,101191.59
2022-11-30T00:57:26.112Z,101197.91
2022-11-30T00:59:56.779Z,101208.94
2022-11-30T01:02:27.676Z,101212.53
2022-11-30T01:04:58.010Z,101218.88
2022-11-30T01:07:28.175Z,101220.81
2022-11-30T01:09:58.326Z,101218.88
2022-11-30T01:12:28.398Z,101230.72
2022-11-30T01:14:58.489Z,101226.84
2022-11-30T01:17:28.520Z,101235.13
2022-11-30T01:19:59.224Z,101235.94
2022-11-30T01:22:29.369Z,101240.66
2022-11-30T01:24:59.345Z,101234.81
2022-11-30T01:27:29.304Z,101238.41
2022-11-30T01:29:59.960Z,101245.03
2022-11-30T01:32:30.751Z,101236.78
2022-11-30T01:35:00.985Z,101242.28
2022-11-30T01:37:32.344Z,101248.59
2022-11-30T01:40:02.146Z,101248.00
2022-11-30T01:42:32.177Z,101237.28
2022-11-30T01:45:04.087Z,101245.03
2022-11-30T01:47:58.925Z,101248.31
2022-11-30T01:50:38.786Z,101242.78
2022-11-30T01:53:13.104Z,101238.88
2022-11-30T01:55:48.819Z,101245.25
2022-11-30T01:58:26.012Z,101249.31
2022-11-30T02:00:57.028Z,101241.34
2022-11-30T02:03:52.436Z,101246.03
2022-11-30T02:06:22.686Z,101242.16
2022-11-30T02:08:53.368Z,101245.75
2022-11-30T02:11:24.780Z,101241.34
2022-11-30T02:14:22.862Z,101241.03
2022-11-30T02:16:55.812Z,101248.19
2022-11-30T02:19:54.786Z,101247.59
2022-11-30T02:23:01.876Z,101254.22
2022-11-30T02:25:53.949Z,101255.06
2022-11-30T02:29:07.508Z,101252.31
2022-11-30T02:31:47.349Z,101260.25
2022-11-30T02:34:22.269Z,101254.75
2022-11-30T02:36:52.898Z,101250.88
2022-11-30T02:39:25.017Z,101258.00
2022-11-30T02:41:55.262Z,101256.38
2022-11-30T02:44:27.124Z,101256.38
2022-11-30T02:47:07.510Z,101255.25
2022-11-30T02:49:58.534Z,101248.09
2022-11-30T02:52:31.450Z,101246.97
2022-11-30T02:55:10.674Z,101253.00
2022-11-30T02:57:41.939Z,101249.75
2022-11-30T03:00:15.302Z,101254.13
2022-11-30T03:02:46.088Z,101262.41
2022-11-30T03:05:16.333Z,101251.38
2022-11-30T03:07:46.600Z,101245.03
2022-11-30T03:10:16.864Z,101244.72
2022-11-30T03:12:46.898Z,101245.53
2022-11-30T03:15:16.991Z,101247.50
2022-11-30T03:17:46.958Z,101238.09
2022-11-30T03:20:16.999Z,101236.97
2022-11-30T03:22:47.045Z,101231.44
2022-11-30T03:25:17.148Z,101234.22
2022-11-30T03:27:47.205Z,101232.25
2022-11-30T03:30:17.350Z,101231.94
2022-11-30T03:32:47.482Z,101227.53
2022-11-30T03:35:17.507Z,101228.03
2022-11-30T03:37:49.283Z,101222.00
2022-11-30T03:40:19.562Z,101228.38
2022-11-30T03:42:49.776Z,101219.25
2022-11-30T03:45:20.547Z,101225.28
2022-11-30T03:47:50.593Z,101212.00
2022-11-30T03:50:20.644Z,101212.00
2022-11-30T03:52:50.803Z,101202.91
2022-11-30T03:55:20.784Z,101207.31
2022-11-30T03:57:50.996Z,101194.84
2022-11-30T04:00:21.940Z,101202.00
2022-11-30T04:02:52.237Z,101190.13
2022-11-30T04:05:24.581Z,101184.59
2022-11-30T04:07:54.872Z,101182.34
2022-11-30T04:10:26.244Z,101177.94
2022-11-30T04:12:56.573Z,101170.50
2022-11-30T04:15:26.881Z,101163.84
2022-11-30T04:17:57.034Z,101152.81
2022-11-30T04:20:27.764Z,101154.75
2022-11-30T04:23:00.421Z,101145.34
2022-11-30T04:25:30.599Z,101141.44
2022-11-30T04:28:01.116Z,101145.06
2022-11-30T04:30:31.856Z,101137.56
2022-11-30T04:33:02.182Z,101136.78
2022-11-30T04:35:32.498Z,101131.75
2022-11-30T04:38:03.550Z,101120.72
2022-11-30T04:40:33.889Z,101118.75
2022-11-30T04:43:04.219Z,101115.66
2022-11-30T04:45:35.701Z,101110.16
2022-11-30T04:48:07.436Z,101106.91
2022-11-30T04:50:38.530Z,101105.75
2022-11-30T04:53:09.255Z,101088.06
2022-11-30T04:55:40.696Z,101085.81
2022-11-30T04:58:10.497Z,101078.66
2022-11-30T05:00:40.770Z,101079.78
2022-11-30T05:03:10.999Z,101077.03
2022-11-30T05:05:41.339Z,101071.22
2022-11-30T05:08:11.982Z,101067.63
2022-11-30T05:10:42.710Z,101068.44
2022-11-30T05:13:12.890Z,101059.84
2022-11-30T05:15:43.047Z,101059.84
2022-11-30T05:18:13.085Z,101048.50
2022-11-30T05:21:01.482Z,101047.38
2022-11-30T05:23:32.236Z,101035.50
2022-11-30T05:26:20.596Z,101033.25
2022-11-30T05:31:36.751Z,101026.09
2022-11-30T05:34:25.181Z,101005.66
2022-11-30T05:37:15.001Z,100999.53
2022-11-30T05:40:03.427Z,100993.47
2022-11-30T05:42:33.861Z,100997.91
2022-11-30T05:48:08.454Z,100978.25
2022-11-30T05:50:38.892Z,100984.91
2022-11-30T05:53:09.048Z,100974.69
2022-11-30T05:55:39.116Z,100968.84
2022-11-30T05:58:09.301Z,100961.38
2022-11-30T06:00:39.718Z,100958.94
2022-11-30T06:03:30.215Z,100957.78
2022-11-30T06:06:00.651Z,100945.28
2022-11-30T06:08:30.932Z,100939.78
2022-11-30T06:11:04.387Z,100934.25
2022-11-30T06:13:37.302Z,100930.34
2022-11-30T06:16:08.622Z,100927.59
2022-11-30T06:18:40.605Z,100924.84
2022-11-30T06:21:13.762Z,100910.72
2022-11-30T06:26:29.525Z,100899.19
2022-11-30T06:28:59.530Z,100898.88
2022-11-30T06:31:29.968Z,100898.06
2022-11-30T06:34:01.712Z,100888.66
2022-11-30T06:36:35.725Z,100884.75
2022-11-30T06:39:49.967Z,100877.59
2022-11-30T06:42:15.655Z,100870.63
2022-11-30T06:44:46.162Z,100866.22
2022-11-30T06:47:16.588Z,100870.63
2022-11-30T06:49:46.820Z,100858.78
2022-11-30T06:52:17.109Z,100857.66
2022-11-30T06:54:48.771Z,100844.66
2022-11-30T06:57:37.278Z,100833.09
2022-11-30T07:00:08.484Z,100826.44
2022-11-30T07:02:39.393Z,100815.41
2022-11-30T07:05:09.959Z,100805.50
2022-11-30T07:07:58.520Z,100797.84
2022-11-30T07:10:48.304Z,100791.69
2022-11-30T07:13:22.165Z,100782.28
2022-11-30T07:15:52.338Z,100775.94
2022-11-30T07:18:25.860Z,100763.78
2022-11-30T07:21:18.576Z,100762.66
2022-11-30T07:24:07.217Z,100763.78
2022-11-30T07:26:55.914Z,100761.19
2022-11-30T07:29:26.045Z,100751.75
2022-11-30T07:31:56.765Z,100755.31
2022-11-30T07:34:27.185Z,100747.88
2022-11-30T07:36:57.431Z,100760.03
2022-11-30T07:48:23.538Z,100768.16
2022-11-30T07:53:39.541Z,100781.50
2022-11-30T07:56:13.119Z,100775.97
2022-11-30T07:58:44.137Z,100763.78
2022-11-30T08:01:35.030Z,100747.22
2022-11-30T08:04:05.356Z,100728.38
2022-11-30T08:06:35.632Z,100717.66
2022-11-30T08:09:07.482Z,100716.19
2022-11-30T08:11:38.491Z,100726.91
2022-11-30T08:14:08.820Z,100722.19
2022-11-30T08:16:42.569Z,100733.25
2022-11-30T08:19:13.105Z,100741.53
2022-11-30T08:21:43.306Z,100749.00
2022-11-30T08:24:16.199Z,100758.09
2022-11-30T08:26:46.548Z,100771.91
2022-11-30T08:29:16.720Z,100781.03
2022-11-30T08:31:46.992Z,100801.78
2022-11-30T08:34:18.704Z,100791.56
2022-11-30T08:36:51.740Z,100778.56
2022-11-30T08:39:22.312Z,100799.34
2022-11-30T08:41:54.373Z,100814.78
2022-11-30T08:44:24.637Z,100817.06
2022-11-30T08:46:55.505Z,100812.66
2022-11-30T08:49:26.406Z,100815.44
2022-11-30T08:54:50.391Z,100782.63
2022-11-30T08:57:23.831Z,100794.16
2022-11-30T08:59:53.947Z,100770.91
2022-11-30T09:02:24.049Z,100757.44
2022-11-30T09:04:56.292Z,100746.72
2022-11-30T09:07:26.556Z,100735.69
2022-11-30T09:09:56.901Z,100726.09
2022-11-30T09:12:27.184Z,100721.38
2022-11-30T09:14:58.564Z,100710.34
2022-11-30T09:17:30.699Z,100713.75
2022-11-30T09:20:00.933Z,100722.38
2022-11-30T09:22:32.312Z,100733.06
2022-11-30T09:25:02.539Z,100746.25
2022-11-30T09:27:35.242Z,100758.41
2022-11-30T09:30:06.419Z,100755.66
2022-11-30T09:32:36.626Z,100769.13
2022-11-30T09:35:12.461Z,100780.16
2022-11-30T09:37:43.583Z,100788.78
2022-11-30T09:40:16.684Z,100792.69
2022-11-30T09:43:04.982Z,100778.88
2022-11-30T09:45:38.306Z,100789.59
2022-11-30T09:48:41.312Z,100795.09
2022-11-30T09:51:21.375Z,100796.91
2022-11-30T09:54:01.146Z,100806.00
2022-11-30T09:56:37.178Z,100807.13
2022-11-30T09:59:16.709Z,100798.03
2022-11-30T10:01:55.380Z,100805.81
2022-11-30T10:04:33.894Z,100817.66
2022-11-30T10:07:19.558Z,100825.66
2022-11-30T10:10:30.400Z,100828.06
2022-11-30T10:13:12.224Z,100835.88
2022-11-30T10:16:19.302Z,100848.53
2022-11-30T10:19:10.809Z,100842.50
2022-11-30T10:21:46.810Z,100843.84
2022-11-30T10:24:35.330Z,100846.09
2022-11-30T10:27:19.099Z,100837.31
2022-11-30T10:29:49.281Z,100829.03
2022-11-30T10:32:32.324Z,100829.34
2022-11-30T10:35:21.171Z,100821.06
2022-11-30T10:37:54.640Z,100821.41
2022-11-30T10:41:02.630Z,100832.09
2022-11-30T10:43:45.713Z,100841.56
2022-11-30T10:46:26.327Z,100846.56
2022-11-30T10:49:07.529Z,100850.63
2022-11-30T10:51:41.493Z,100849.84
2022-11-30T10:54:21.922Z,100845.13
2022-11-30T10:56:52.436Z,100842.03
2022-11-30T10:59:28.528Z,100835.69
2022-11-30T11:01:58.769Z,100826.59
2022-11-30T11:04:30.121Z,100827.41
2022-11-30T11:07:16.431Z,100821.91
2022-11-30T11:09:54.038Z,100833.72
2022-11-30T11:12:28.987Z,100849.84
2022-11-30T11:15:29.961Z,100865.22
2022-11-30T11:18:27.477Z,100879.88
2022-11-30T11:21:07.252Z,100888.16
2022-11-30T11:23:41.281Z,100906.66
2022-11-30T11:26:30.055Z,100904.53
2022-11-30T11:29:04.581Z,100891.25
2022-11-30T11:31:34.766Z,100887.97
2022-11-30T11:34:06.428Z,100893.50
2022-11-30T11:36:40.793Z,100898.19
2022-11-30T11:39:28.728Z,100904.53
2022-11-30T11:41:59.607Z,100918.34
2022-11-30T11:44:30.553Z,100920.28
2022-11-30T11:47:03.993Z,100933.28
2022-11-30T11:49:41.549Z,100945.13
2022-11-30T11:52:15.112Z,100959.75
2022-11-30T11:54:53.089Z,100959.25
2022-11-30T11:57:36.320Z,100960.88
2022-11-30T12:00:28.303Z,100964.78
2022-11-30T12:03:29.702Z,100981.34
2022-11-30T12:06:06.346Z,100991.56
2022-11-30T12:08:49.648Z,100996.53
2022-11-30T12:11:49.669Z,100980.81
2022-11-30T12:14:21.938Z,100970.56
2022-11-30T12:17:26.746Z,100965.69
2022-11-30T12:20:29.450Z,100975.63
2022-11-30T12:23:32.549Z,100977.53
2022-11-30T12:26:23.643Z,100980.63
2022-11-30T12:29:02.405Z,100996.88
2022-11-30T12:32:02.360Z,101007.56
2022-11-30T12:35:06.234Z,101009.88
2022-11-30T12:37:43.025Z,101015.69
2022-11-30T12:40:52.374Z,101013.75
2022-11-30T12:43:41.822Z,101021.03
2022-11-30T12:46:34.599Z,101044.75
2022-11-30T12:49:27.929Z,101087.44
2022-11-30T12:52:19.228Z,101090.53
2022-11-30T12:55:01.908Z,101089.19
2022-11-30T12:58:16.096Z,101099.63
2022-11-30T13:01:07.784Z,101095.22
2022-11-30T13:04:09.932Z,101110.66
2022-11-30T13:06:56.139Z,101111.50
2022-11-30T13:09:28.891Z,101116.19
2022-11-30T13:12:04.336Z,101116.50
2022-11-30T13:14:37.279Z,101106.25
2022-11-30T13:17:09.929Z,101107.38
2022-11-30T13:20:10.534Z,101126.94
2022-11-30T13:22:53.751Z,101131.94
2022-11-30T13:28:44.305Z,101108.72
2022-11-30T13:31:17.158Z,101103.72
2022-11-30T13:33:51.461Z,101109.25
2022-11-30T13:36:43.457Z,101109.53
2022-11-30T13:39:16.440Z,101114.25
2022-11-30T13:42:05.563Z,101117.31
2022-11-30T13:44:46.442Z,101115.66
2022-11-30T13:47:19.866Z,101114.88
2022-11-30T13:50:41.913Z,101121.00
2022-11-30T13:53:21.922Z,101115.81
2022-11-30T13:55:52.130Z,101120.22
2022-11-30T13:58:23.586Z,101119.09
2022-11-30T14:01:03.333Z,101109.47
2022-11-30T14:03:35.058Z,101108.41
2022-11-30T14:06:29.070Z,101119.03
2022-11-30T14:09:00.009Z,101118.41
2022-11-30T14:11:43.513Z,101129.13
2022-11-30T14:14:46.865Z,101136.78
2022-11-30T14:17:22.973Z,101142.63
2022-11-30T14:20:02.111Z,101144.25
2022-11-30T14:22:33.462Z,101149.97
2022-11-30T14:25:04.652Z,101157.94
2022-11-30T14:27:35.064Z,101173.38
2022-11-30T14:30:07.432Z,101179.22
2022-11-30T14:32:43.460Z,101164.78
2022-11-30T14:35:22.713Z,101151.28
2022-11-30T14:37:58.386Z,101157.94
2022-11-30T14:40:33.345Z,101144.63
2022-11-30T14:43:06.336Z,101143.19
2022-11-30T14:45:37.640Z,101140.94
2022-11-30T14:48:09.300Z,101146.97
2022-11-30T14:50:45.039Z,101136.78
2022-11-30T14:53:15.407Z,101126.72
2022-11-30T14:55:59.256Z,101117.81
2022-11-30T14:58:51.314Z,101115.88
2022-11-30T15:01:34.627Z,101118.31
2022-11-30T15:04:17.800Z,101119.44
2022-11-30T15:06:48.338Z,101121.41
2022-11-30T15:09:31.693Z,101115.88
2022-11-30T15:12:02.370Z,101121.91
2022-11-30T15:14:34.341Z,101122.72
2022-11-30T15:17:04.698Z,101131.81
2022-11-30T15:19:39.995Z,101122.41
2022-11-30T15:22:26.524Z,101125.69
2022-11-30T15:24:56.920Z,101122.41
2022-11-30T15:27:30.258Z,101120.13
2022-11-30T15:30:06.028Z,101122.44
2022-11-30T15:32:36.579Z,101114.50
2022-11-30T15:35:07.704Z,101110.22
2022-11-30T15:37:45.728Z,101107.97
2022-11-30T15:40:33.261Z,101105.19
2022-11-30T15:43:04.321Z,101108.19
2022-11-30T15:45:39.205Z,101109.41
2022-11-30T15:48:33.859Z,101118.31
2022-11-30T15:51:05.053Z,101119.44
2022-11-30T15:53:38.626Z,101113.41
2022-11-30T15:56:25.119Z,101133.06
2022-11-30T15:59:16.995Z,101139.38
2022-11-30T16:02:10.461Z,101138.41
2022-11-30T16:04:59.413Z,101142.47
2022-11-30T16:07:42.625Z,101154.03
2022-11-30T16:10:21.547Z,101152.50
2022-11-30T16:12:54.390Z,101143.28
2022-11-30T16:15:26.849Z,101158.19
2022-11-30T16:18:05.627Z,101160.97
2022-11-30T16:20:36.144Z,101153.00
2022-11-30T16:23:06.540Z,101149.13
2022-11-30T16:25:36.915Z,101153.31
2022-11-30T16:28:07.231Z,101153.00
2022-11-30T16:30:37.739Z,101159.03
2022-11-30T16:33:08.240Z,101160.97
2022-11-30T16:35:43.873Z,101160.16
2022-11-30T16:38:14.213Z,101161.91
2022-11-30T16:40:44.294Z,101166.00
2022-11-30T16:43:14.974Z,101156.38
2022-11-30T16:45:48.879Z,101153.63
2022-11-30T16:48:19.938Z,101146.69
2022-11-30T16:50:50.019Z,101146.16
2022-11-30T16:53:23.796Z,101139.81
2022-11-30T16:55:56.243Z,101136.25
2022-11-30T16:58:26.193Z,101133.50
2022-11-30T17:00:57.435Z,101129.63
2022-11-30T17:03:32.656Z,101134.31
2022-11-30T17:06:03.181Z,101131.25
2022-11-30T17:08:33.430Z,101132.66
2022-11-30T17:11:03.773Z,101129.63
2022-11-30T17:13:34.058Z,101141.78
2022-11-30T17:16:04.369Z,101133.16
2022-11-30T17:18:34.640Z,101124.72
2022-11-30T17:21:04.906Z,101122.75
2022-11-30T17:23:35.149Z,101117.75
2022-11-30T17:26:05.365Z,101119.19
2022-11-30T17:28:35.538Z,101116.44
2022-11-30T17:31:06.352Z,101117.56
2022-11-30T17:33:37.989Z,101115.91
2022-11-30T17:36:10.832Z,101116.53
2022-11-30T17:38:42.005Z,101112.34
2022-11-30T17:41:18.798Z,101116.25
2022-11-30T17:43:50.416Z,101114.28
2022-11-30T17:46:21.791Z,101117.38
2022-11-30T17:48:52.487Z,101116.53
2022-11-30T17:51:23.181Z,101116.53
2022-11-30T17:53:53.617Z,101118.78
2022-11-30T17:56:23.789Z,101117.16
2022-11-30T17:58:54.223Z,101110.03
2022-11-30T18:01:27.193Z,101106.94
2022-11-30T18:03:58.817Z,101101.44
2022-11-30T18:06:29.181Z,101097.03
2022-11-30T18:09:00.165Z,101090.72
2022-11-30T18:11:30.556Z,101085.19
2022-11-30T18:14:04.150Z,101083.22
2022-11-30T18:16:40.569Z,101074.16
2022-11-30T18:19:15.521Z,101068.31
2022-11-30T18:21:48.388Z,101068.00
2022-11-30T18:24:22.548Z,101067.47
2022-11-30T18:26:55.992Z,101072.19
2022-11-30T18:29:26.077Z,101076.06
2022-11-30T18:31:56.049Z,101067.00
2022-11-30T18:34:26.164Z,101072.53
2022-11-30T18:36:56.421Z,101065.88
2022-11-30T18:39:26.586Z,101064.25
2022-11-30T18:41:56.723Z,101063.41
2022-11-30T18:44:26.755Z,101055.97
2022-11-30T18:46:57.300Z,101045.22
2022-11-30T18:49:27.486Z,101046.56
2022-11-30T18:51:57.578Z,101043.28
2022-11-30T18:54:28.070Z,101039.69
2022-11-30T18:56:58.291Z,101041.66
2022-11-30T18:59:28.527Z,101045.22
2022-11-30T19:02:00.295Z,101041.34
2022-11-30T19:04:30.539Z,101039.69
2022-11-30T19:07:00.651Z,101044.41
2022-11-30T19:09:30.790Z,101040.22
2022-11-30T19:12:02.291Z,101034.19
2022-11-30T19:14:32.765Z,101036.44
2022-11-30T19:17:02.963Z,101037.25
2022-11-30T19:19:33.256Z,101026.22
2022-11-30T19:22:03.610Z,101020.72
2022-11-30T19:24:34.256Z,101015.19
2022-11-30T19:27:04.511Z,101015.19
2022-11-30T19:29:34.670Z,100995.88
2022-11-30T19:32:04.683Z,101001.91
2022-11-30T19:34:34.898Z,100994.25
2022-11-30T19:37:04.922Z,101002.53
2022-11-30T19:39:35.753Z,100996.50
2022-11-30T19:42:06.722Z,100990.97
2022-11-30T19:44:36.945Z,100990.66
2022-11-30T19:47:07.178Z,100995.38
2022-11-30T19:49:39.317Z,100985.78
2022-11-30T19:52:09.564Z,100981.91
2022-11-30T19:54:39.523Z,100974.75
2022-11-30T19:57:10.187Z,100963.38
2022-11-30T19:59:40.343Z,100961.25
2022-11-30T20:02:14.392Z,100948.78
2022-11-30T20:04:44.801Z,100951.34
2022-11-30T20:07:16.083Z,100947.47
2022-11-30T20:09:46.393Z,100946.66
2022-11-30T20:12:16.338Z,100943.06
2022-11-30T20:14:46.947Z,100948.28
2022-11-30T20:17:17.304Z,100940.31
2022-11-30T20:19:47.284Z,100941.13
2022-11-30T20:22:17.254Z,100941.13
2022-11-30T20:24:47.446Z,100940.63
2022-11-30T20:27:24.119Z,100932.84
2022-11-30T20:29:54.744Z,100929.59
2022-11-30T20:32:25.111Z,100932.03
2022-11-30T20:34:55.182Z,100935.91
2022-11-30T20:37:26.458Z,100940.31
2022-11-30T20:39:56.215Z,100942.78
2022-11-30T20:42:28.014Z,100942.09
2022-11-30T20:45:00.045Z,100945.31
2022-11-30T20:47:34.772Z,100944.84
2022-11-30T20:50:07.072Z,100946.78
2022-11-30T20:52:37.412Z,100948.72
2022-11-30T20:55:08.067Z,100958.94
2022-11-30T20:57:38.293Z,100956.16
2022-11-30T21:00:13.065Z,100960.88
2022-11-30T21:02:43.757Z,100966.69
2022-11-30T21:05:14.263Z,100969.78
2022-11-30T21:07:44.495Z,100975.59
2022-11-30T21:10:15.413Z,100976.44
2022-11-30T21:12:45.645Z,100963.16
2022-11-30T21:15:15.732Z,100965.41
2022-11-30T21:17:45.835Z,100965.41
2022-11-30T21:20:15.782Z,100961.31
2022-11-30T21:22:45.751Z,100962.13
2022-11-30T21:25:15.711Z,100968.25
2022-11-30T21:27:45.952Z,100966.84
2022-11-30T21:30:16.725Z,100976.25
2022-11-30T21:32:48.036Z,100980.94
2022-11-30T21:35:18.262Z,100977.38
2022-11-30T21:37:48.261Z,100977.66
2022-11-30T21:40:20.507Z,100974.63
2022-11-30T21:42:52.082Z,100980.94
2022-11-30T21:45:22.370Z,100979.28
2022-11-30T21:47:53.073Z,100977.66
2022-11-30T21:50:27.067Z,100976.53
2022-11-30T21:52:57.528Z,100975.75
2022-11-30T21:55:27.504Z,100976.88
2022-11-30T21:57:57.680Z,100990.16
2022-11-30T22:00:28.276Z,100984.63
2022-11-30T22:02:58.522Z,100988.69
2022-11-30T22:05:29.795Z,100989.22
2022-11-30T22:07:59.980Z,100991.97
2022-11-30T22:10:29.961Z,100996.97
2022-11-30T22:13:00.779Z,100996.97
2022-11-30T22:15:32.058Z,100997.63
2022-11-30T22:18:01.839Z,101000.38
2022-11-30T22:20:31.834Z,101005.25
2022-11-30T22:23:02.984Z,101009.97
2022-11-30T22:25:32.703Z,101010.47
2022-11-30T22:28:02.775Z,101013.22
2022-11-30T22:30:33.619Z,101012.72
2022-11-30T22:33:03.946Z,101013.00
2022-11-30T22:35:34.143Z,101017.72
2022-11-30T22:38:05.592Z,101026.31
2022-11-30T22:40:36.273Z,101026.31
2022-11-30T22:43:06.472Z,101040.13
2022-11-30T22:45:37.008Z,101041.25
2022-11-30T22:48:07.561Z,101042.56
2022-11-30T22:50:37.692Z,101044.50
2022-11-30T22:55:55.297Z,101057.56
2022-11-30T22:58:26.886Z,101063.88
2022-11-30T23:00:57.508Z,101063.69
2022-11-30T23:03:31.111Z,101063.47
2022-11-30T23:06:01.983Z,101074.00
2022-11-30T23:08:33.146Z,101073.50
2022-11-30T23:11:06.403Z,101074.63
2022-11-30T23:13:37.208Z,101083.41
2022-11-30T23:16:07.738Z,101087.78
2022-11-30T23:19:03.883Z,101094.94
2022-11-30T23:21:40.930Z,101099.97
2022-11-30T23:24:22.818Z,101104.03
2022-11-30T23:26:55.857Z,101114.88
2022-11-30T23:29:26.198Z,101110.47
2022-11-30T23:31:56.375Z,101112.13
2022-11-30T23:34:26.556Z,101118.44
2022-11-30T23:36:56.657Z,101118.13
2022-11-30T23:39:26.991Z,101128.34
2022-11-30T23:41:58.292Z,101124.28
2022-11-30T23:44:28.125Z,101131.72
2022-11-30T23:46:58.167Z,101137.22
2022-11-30T23:49:28.354Z,101140.31
2022-11-30T23:52:01.615Z,101143.06
2022-11-30T23:54:31.795Z,101147.97
2022-11-30T23:57:01.943Z,101147.97
2022-11-30T23:59:31.929Z,101147.97
